Time;durP1;ratioP1;P1;durP2;ratioP2;P2;SDS_P1;SDS_P2;PMS_P1;PMS_P2;Temp;Humidity;BMP_temperature;BMP_pressure;BME280_temperature;BME280_humidity;BME280_pressure;Samples;Min_cycle;Max_cycle;Signal;HPM_P1;HPM_P2
2023/06/09 00:01:47;;;;;;;5.73;3.77;;;12.70;99.90;;;;;;5030700;28;20193;-77
2023/06/09 00:04:13;;;;;;;6.70;4.00;;;12.70;99.90;;;;;;5035659;28;20181;-77
2023/06/09 00:06:39;;;;;;;5.87;3.40;;;12.70;99.90;;;;;;5044860;28;20265;-77
2023/06/09 00:09:06;;;;;;;6.73;3.70;;;12.70;99.90;;;;;;5051559;28;20186;-77
2023/06/09 00:11:33;;;;;;;9.33;4.23;;;12.60;99.90;;;;;;5032763;28;20967;-77
2023/06/09 00:13:59;;;;;;;7.63;3.80;;;12.60;99.90;;;;;;5030957;28;20474;-77
2023/06/09 00:16:24;;;;;;;6.90;3.93;;;12.60;99.90;;;;;;5031512;28;20461;-77
2023/06/09 00:18:51;;;;;;;6.30;4.17;;;12.50;99.90;;;;;;5034741;28;20435;-77
2023/06/09 00:21:18;;;;;;;7.83;4.00;;;12.50;99.90;;;;;;5031034;28;20217;-77
2023/06/09 00:23:47;;;;;;;7.50;3.80;;;12.50;99.90;;;;;;5036556;28;20494;-77
2023/06/09 00:26:13;;;;;;;8.93;4.30;;;12.50;99.90;;;;;;5044684;28;20416;-77
2023/06/09 00:28:40;;;;;;;4.40;2.93;;;12.40;99.90;;;;;;5032789;28;20437;-77
2023/06/09 00:31:06;;;;;;;9.40;4.57;;;12.40;99.90;;;;;;5026181;28;21531;-77
2023/06/09 00:33:32;;;;;;;7.67;4.63;;;12.40;99.90;;;;;;5024670;28;20990;-77
2023/06/09 00:35:57;;;;;;;10.00;4.00;;;12.30;99.90;;;;;;5031209;28;20452;-77
2023/06/09 00:38:23;;;;;;;8.07;4.90;;;12.40;99.90;;;;;;5026847;28;20190;-77
2023/06/09 00:40:52;;;;;;;5.83;4.03;;;12.30;99.90;;;;;;5031128;28;20204;-77
2023/06/09 00:43:17;;;;;;;6.43;4.03;;;12.30;99.90;;;;;;5030221;28;20197;-77
2023/06/09 00:45:43;;;;;;;7.23;3.83;;;12.30;99.90;;;;;;5031324;28;20766;-77
2023/06/09 00:48:09;;;;;;;6.90;3.90;;;12.30;99.90;;;;;;5025313;28;20190;-77
2023/06/09 00:50:36;;;;;;;7.00;4.40;;;12.40;99.90;;;;;;5020484;28;20186;-77
2023/06/09 00:53:02;;;;;;;8.03;4.57;;;12.30;99.90;;;;;;5024983;28;20206;-77
2023/06/09 00:55:29;;;;;;;5.53;3.30;;;12.30;99.90;;;;;;5030905;28;20431;-77
2023/06/09 00:57:55;;;;;;;9.33;4.13;;;12.30;99.90;;;;;;5018034;28;20523;-76
2023/06/09 01:00:28;;;;;;;5.63;3.73;;;12.30;99.90;;;;;;5024126;28;20438;-77
2023/06/09 01:03:00;;;;;;;7.10;4.00;;;12.30;99.90;;;;;;5026632;28;20934;-77
2023/06/09 01:05:32;;;;;;;6.80;4.37;;;12.20;99.90;;;;;;5026564;28;20417;-76
2023/06/09 01:08:04;;;;;;;6.70;3.67;;;12.20;99.90;;;;;;5016105;28;20501;-76
2023/06/09 01:10:46;;;;;;;5.40;3.90;;;12.10;99.90;;;;;;5011017;28;20802;-76
2023/06/09 01:13:34;;;;;;;5.60;3.17;;;12.10;99.90;;;;;;5023386;28;20446;-77
2023/06/09 01:16:05;;;;;;;6.20;3.70;;;12.00;99.90;;;;;;5024656;28;21039;-76
2023/06/09 01:18:33;;;;;;;8.47;4.43;;;12.10;99.90;;;;;;5030204;28;21184;-77
2023/06/09 01:21:12;;;;;;;6.20;3.70;;;12.10;99.90;;;;;;5030790;28;20504;-76
2023/06/09 01:23:44;;;;;;;8.90;4.70;;;12.00;99.90;;;;;;5022642;28;20487;-76
2023/06/09 01:26:12;;;;;;;9.23;4.70;;;11.90;99.90;;;;;;5030237;28;20426;-77
2023/06/09 01:28:39;;;;;;;7.07;4.20;;;11.90;99.90;;;;;;5018248;28;20413;-76
2023/06/09 01:31:05;;;;;;;6.73;3.67;;;11.90;99.90;;;;;;5025714;28;20590;-76
2023/06/09 01:33:31;;;;;;;11.30;5.13;;;11.80;99.90;;;;;;5024799;28;20987;-76
2023/06/09 01:35:57;;;;;;;6.80;4.00;;;11.70;99.90;;;;;;5022637;28;20241;-76
2023/06/09 01:38:25;;;;;;;6.77;4.10;;;11.70;99.90;;;;;;5023704;28;20494;-76
2023/06/09 01:40:50;;;;;;;7.53;2.90;;;11.70;99.90;;;;;;5028828;28;20941;-76
2023/06/09 01:43:17;;;;;;;5.97;3.60;;;11.60;99.90;;;;;;5028373;28;20444;-76
2023/06/09 01:45:42;;;;;;;4.77;3.30;;;11.60;99.90;;;;;;5026279;28;20539;-76
2023/06/09 01:48:17;;;;;;;6.90;3.83;;;11.60;99.90;;;;;;5030505;28;20436;-76
2023/06/09 01:50:54;;;;;;;8.57;4.67;;;11.60;99.90;;;;;;5030816;28;20186;-76
2023/06/09 01:53:26;;;;;;;7.47;3.87;;;11.50;99.90;;;;;;5030871;28;20429;-77
2023/06/09 01:56:09;;;;;;;11.37;4.30;;;11.50;99.90;;;;;;5034347;28;20514;-77
2023/06/09 01:58:43;;;;;;;6.33;4.10;;;11.50;99.90;;;;;;5029424;28;20952;-76
2023/06/09 02:01:10;;;;;;;4.93;4.13;;;11.50;99.90;;;;;;5029507;28;20520;-76
2023/06/09 02:03:39;;;;;;;9.00;3.40;;;11.40;99.90;;;;;;5029859;28;20424;-75
2023/06/09 02:06:05;;;;;;;6.90;4.27;;;11.40;99.90;;;;;;5032235;28;20458;-76
2023/06/09 02:08:32;;;;;;;7.57;4.30;;;11.40;99.90;;;;;;5014955;28;20422;-76
2023/06/09 02:10:57;;;;;;;7.30;4.47;;;11.40;99.90;;;;;;5026458;28;20436;-76
2023/06/09 02:13:23;;;;;;;7.90;3.93;;;11.30;99.90;;;;;;5033394;28;21247;-76
2023/06/09 02:15:49;;;;;;;6.80;4.00;;;11.30;99.90;;;;;;5031045;28;20722;-76
2023/06/09 02:18:20;;;;;;;5.87;3.60;;;11.40;99.90;;;;;;5029799;28;20170;-76
2023/06/09 02:20:47;;;;;;;15.27;4.07;;;11.40;99.90;;;;;;5033252;28;20186;-76
2023/06/09 02:23:15;;;;;;;5.70;3.40;;;11.30;99.90;;;;;;5029348;28;20410;-76
2023/06/09 02:25:41;;;;;;;8.30;4.83;;;11.30;99.90;;;;;;5028214;28;20917;-76
2023/06/09 02:28:06;;;;;;;8.90;4.07;;;11.30;99.90;;;;;;5027561;28;20425;-77
2023/06/09 02:30:35;;;;;;;10.50;6.13;;;11.30;99.90;;;;;;5020389;28;20265;-75
2023/06/09 02:33:01;;;;;;;9.83;4.53;;;11.30;99.90;;;;;;5032252;28;20201;-76
2023/06/09 02:35:31;;;;;;;5.63;3.40;;;11.30;99.90;;;;;;5020427;28;20445;-76
2023/06/09 02:37:57;;;;;;;7.03;3.70;;;11.30;99.90;;;;;;5033700;28;20423;-76
2023/06/09 02:40:26;;;;;;;8.10;4.50;;;11.30;99.90;;;;;;5032206;28;20429;-76
2023/06/09 02:42:52;;;;;;;8.23;4.77;;;11.30;99.90;;;;;;5013710;28;20413;-76
2023/06/09 02:45:17;;;;;;;6.50;3.43;;;11.30;99.90;;;;;;5026097;28;20876;-76
2023/06/09 02:47:43;;;;;;;9.77;4.73;;;11.40;99.90;;;;;;5030177;28;20190;-76
2023/06/09 02:50:09;;;;;;;7.87;3.70;;;11.30;99.90;;;;;;5027363;28;20205;-76
2023/06/09 02:52:35;;;;;;;6.77;3.80;;;11.30;99.90;;;;;;5029281;28;20191;-76
2023/06/09 02:55:01;;;;;;;6.53;3.73;;;11.20;99.90;;;;;;5031897;28;20431;-76
2023/06/09 02:57:27;;;;;;;8.20;4.30;;;11.20;99.90;;;;;;5028267;28;20210;-76
2023/06/09 02:59:53;;;;;;;10.67;5.10;;;11.20;99.90;;;;;;5032362;28;20240;-76
2023/06/09 03:02:19;;;;;;;5.47;3.73;;;11.10;99.90;;;;;;5028962;28;20422;-76
2023/06/09 03:04:45;;;;;;;10.17;4.03;;;11.10;99.90;;;;;;5022912;28;20536;-76
2023/06/09 03:07:13;;;;;;;7.80;4.77;;;11.10;99.90;;;;;;5030632;28;20273;-76
2023/06/09 03:09:42;;;;;;;8.37;3.87;;;11.10;99.90;;;;;;5029007;28;20747;-76
2023/06/09 03:12:09;;;;;;;8.30;4.10;;;11.30;99.90;;;;;;5031828;28;20578;-76
2023/06/09 03:14:35;;;;;;;11.10;5.50;;;11.10;99.90;;;;;;5031262;28;20449;-76
2023/06/09 03:17:01;;;;;;;9.10;4.40;;;11.10;99.90;;;;;;5032306;28;20472;-76
2023/06/09 03:19:27;;;;;;;12.27;5.33;;;11.00;99.90;;;;;;5032266;28;20174;-76
2023/06/09 03:21:53;;;;;;;7.63;3.90;;;10.90;99.90;;;;;;5027776;28;20607;-76
2023/06/09 03:24:19;;;;;;;7.70;4.00;;;10.90;99.90;;;;;;5026595;28;20179;-76
2023/06/09 03:26:48;;;;;;;6.60;4.30;;;11.00;99.90;;;;;;5032741;28;20421;-76
2023/06/09 03:29:14;;;;;;;7.03;3.80;;;10.90;99.90;;;;;;5027193;28;20534;-76
2023/06/09 03:31:41;;;;;;;6.67;4.20;;;10.80;99.90;;;;;;5022780;28;20449;-76
2023/06/09 03:34:06;;;;;;;5.90;4.33;;;10.90;99.90;;;;;;5026836;28;20456;-76
2023/06/09 03:36:35;;;;;;;5.60;3.93;;;10.80;99.90;;;;;;5020732;28;20549;-76
2023/06/09 03:39:01;;;;;;;8.60;4.40;;;10.90;99.90;;;;;;5030743;28;20202;-76
2023/06/09 03:41:26;;;;;;;6.47;4.33;;;10.90;99.90;;;;;;5017811;28;20426;-76
2023/06/09 03:43:52;;;;;;;8.40;4.63;;;10.90;99.90;;;;;;5030857;28;20548;-76
2023/06/09 03:46:18;;;;;;;7.23;3.97;;;10.90;99.90;;;;;;5032375;28;20182;-76
2023/06/09 03:48:43;;;;;;;8.67;4.80;;;11.00;99.90;;;;;;5018925;28;20187;-76
2023/06/09 03:51:09;;;;;;;5.70;4.00;;;10.90;99.90;;;;;;5023535;28;20194;-76
2023/06/09 03:53:35;;;;;;;13.23;4.83;;;10.90;99.90;;;;;;5028676;28;20644;-76
2023/06/09 03:56:00;;;;;;;9.23;4.80;;;11.00;99.90;;;;;;5028355;28;20293;-76
2023/06/09 03:58:27;;;;;;;10.37;4.90;;;11.00;99.90;;;;;;5019009;28;20302;-76
2023/06/09 04:00:52;;;;;;;6.70;4.20;;;11.00;99.90;;;;;;5030975;28;20213;-76
2023/06/09 04:03:20;;;;;;;7.63;4.83;;;10.90;99.90;;;;;;5021751;28;20895;-76
2023/06/09 04:05:46;;;;;;;6.10;4.00;;;11.00;99.90;;;;;;5027547;28;20179;-76
2023/06/09 04:08:12;;;;;;;7.00;4.27;;;11.00;99.90;;;;;;5029583;28;20413;-76
2023/06/09 04:10:38;;;;;;;10.77;4.93;;;11.00;99.90;;;;;;5031498;28;21069;-76
2023/06/09 04:13:04;;;;;;;18.60;9.33;;;11.10;99.90;;;;;;5015320;28;20209;-76
2023/06/09 04:15:29;;;;;;;19.00;7.90;;;11.10;99.90;;;;;;5026916;28;20441;-76
2023/06/09 04:17:55;;;;;;;7.60;5.07;;;11.10;99.90;;;;;;5031564;28;20662;-76
2023/06/09 04:20:22;;;;;;;11.97;4.60;;;11.20;99.90;;;;;;5031858;28;20224;-75
2023/06/09 04:22:49;;;;;;;10.93;4.63;;;11.30;99.90;;;;;;5030520;28;20725;-76
2023/06/09 04:25:16;;;;;;;9.70;4.80;;;11.20;99.90;;;;;;5025861;28;20486;-76
2023/06/09 04:27:42;;;;;;;8.13;5.07;;;11.30;99.90;;;;;;5031750;28;20428;-75
2023/06/09 04:30:08;;;;;;;7.23;4.47;;;11.20;99.90;;;;;;4997859;28;20438;-75
2023/06/09 04:32:34;;;;;;;8.80;4.40;;;11.10;99.90;;;;;;5030617;28;20214;-76
2023/06/09 04:35:01;;;;;;;9.07;4.57;;;11.30;99.90;;;;;;5024015;28;20486;-76
2023/06/09 04:37:27;;;;;;;6.80;4.13;;;11.40;99.90;;;;;;5024233;28;20321;-76
2023/06/09 04:39:53;;;;;;;8.77;5.10;;;11.40;99.90;;;;;;5011830;28;21100;-76
2023/06/09 04:42:22;;;;;;;10.23;5.67;;;11.40;99.90;;;;;;5023158;28;20501;-76
2023/06/09 04:44:50;;;;;;;7.23;4.10;;;11.50;99.90;;;;;;5029031;28;20186;-76
2023/06/09 04:47:20;;;;;;;4.90;3.67;;;11.50;99.90;;;;;;5021473;28;20425;-75
2023/06/09 04:49:49;;;;;;;9.33;4.57;;;11.70;99.90;;;;;;5013496;28;20429;-76
2023/06/09 04:52:19;;;;;;;5.67;3.60;;;11.70;99.90;;;;;;5030439;28;20429;-75
2023/06/09 04:54:44;;;;;;;6.77;4.10;;;11.80;99.90;;;;;;5030254;28;20449;-75
2023/06/09 04:57:11;;;;;;;9.80;5.70;;;11.90;99.90;;;;;;5029085;28;20463;-75
2023/06/09 04:59:40;;;;;;;7.80;4.20;;;12.10;99.90;;;;;;5028604;28;20190;-75
2023/06/09 05:02:07;;;;;;;10.13;5.13;;;12.20;99.90;;;;;;5021761;28;20445;-76
2023/06/09 05:04:33;;;;;;;8.87;5.77;;;12.10;99.90;;;;;;5030904;28;20413;-76
2023/06/09 05:06:59;;;;;;;12.13;6.00;;;12.20;99.90;;;;;;5027612;28;20521;-76
2023/06/09 05:09:25;;;;;;;10.50;5.70;;;12.30;99.90;;;;;;5021044;28;20274;-75
2023/06/09 05:11:50;;;;;;;6.87;5.27;;;12.40;99.90;;;;;;5022881;28;20197;-76
2023/06/09 05:14:16;;;;;;;9.93;6.10;;;12.50;99.90;;;;;;5020888;28;20179;-76
2023/06/09 05:16:45;;;;;;;8.90;5.60;;;12.60;99.90;;;;;;5023853;28;20212;-76
2023/06/09 05:19:11;;;;;;;12.83;5.40;;;12.70;99.90;;;;;;5024488;28;20220;-76
2023/06/09 05:21:37;;;;;;;9.20;5.87;;;12.80;99.90;;;;;;5027054;28;20969;-75
2023/06/09 05:24:03;;;;;;;9.87;4.73;;;12.90;99.90;;;;;;5028259;28;20425;-76
2023/06/09 05:26:29;;;;;;;7.10;4.83;;;13.00;99.90;;;;;;5024896;28;20553;-76
2023/06/09 05:28:55;;;;;;;8.53;5.47;;;13.10;99.90;;;;;;5023664;28;20441;-75
2023/06/09 05:31:21;;;;;;;10.30;5.70;;;13.20;99.90;;;;;;5018164;28;20436;-75
2023/06/09 05:33:46;;;;;;;11.60;6.30;;;13.30;99.90;;;;;;5027239;28;20182;-75
2023/06/09 05:36:12;;;;;;;10.27;5.40;;;13.40;99.90;;;;;;5019945;28;20237;-76
2023/06/09 05:38:38;;;;;;;10.80;5.63;;;13.50;99.90;;;;;;5019692;28;20222;-76
2023/06/09 05:41:03;;;;;;;10.90;5.03;;;13.70;99.90;;;;;;5023707;28;20183;-75
2023/06/09 05:43:30;;;;;;;12.13;6.67;;;13.80;99.90;;;;;;5029929;28;20198;-75
2023/06/09 05:45:57;;;;;;;11.60;6.23;;;14.00;99.90;;;;;;5025012;28;20593;-75
2023/06/09 05:48:22;;;;;;;10.27;5.47;;;14.10;99.90;;;;;;5023606;28;20428;-75
2023/06/09 05:50:48;;;;;;;9.10;4.83;;;14.30;99.90;;;;;;5030041;28;20417;-76
2023/06/09 05:53:17;;;;;;;7.10;4.57;;;14.40;99.90;;;;;;5027316;28;20224;-76
2023/06/09 05:55:46;;;;;;;11.13;5.60;;;14.60;99.90;;;;;;5022930;28;20435;-75
2023/06/09 05:58:13;;;;;;;8.33;5.23;;;14.80;99.90;;;;;;5003312;28;20487;-75
2023/06/09 06:00:39;;;;;;;11.93;5.73;;;14.90;99.90;;;;;;5015275;28;20457;-75
2023/06/09 06:03:08;;;;;;;15.43;5.50;;;15.00;99.90;;;;;;5021959;28;20445;-75
2023/06/09 06:05:33;;;;;;;10.77;5.13;;;15.10;99.90;;;;;;5020345;28;20175;-75
2023/06/09 06:08:00;;;;;;;10.43;5.97;;;15.20;99.90;;;;;;5023846;28;20423;-75
2023/06/09 06:10:26;;;;;;;10.53;5.10;;;15.20;99.90;;;;;;5021905;28;20179;-75
2023/06/09 06:12:52;;;;;;;8.40;5.00;;;15.30;99.90;;;;;;5021239;28;20972;-75
2023/06/09 06:15:18;;;;;;;13.53;6.07;;;15.30;99.90;;;;;;5022917;28;20222;-75
2023/06/09 06:17:44;;;;;;;7.70;4.90;;;15.40;99.90;;;;;;5022596;28;20856;-75
2023/06/09 06:20:11;;;;;;;7.23;4.70;;;15.40;99.90;;;;;;5026840;28;20237;-75
2023/06/09 06:22:37;;;;;;;7.47;4.70;;;15.50;99.90;;;;;;5019177;28;20207;-76
2023/06/09 06:25:04;;;;;;;8.90;4.90;;;15.60;99.90;;;;;;5014314;28;20741;-75
2023/06/09 06:27:29;;;;;;;6.83;4.20;;;15.70;99.90;;;;;;5010272;28;20418;-76
2023/06/09 06:29:55;;;;;;;10.00;3.97;;;15.70;99.90;;;;;;5022234;28;20409;-75
2023/06/09 06:32:21;;;;;;;8.70;4.33;;;15.90;99.90;;;;;;5016321;28;20182;-75
2023/06/09 06:34:46;;;;;;;6.70;3.67;;;16.10;99.90;;;;;;5013063;28;20253;-75
2023/06/09 06:37:12;;;;;;;11.50;2.83;;;16.30;99.90;;;;;;5024797;28;20198;-75
2023/06/09 06:39:37;;;;;;;5.47;3.23;;;16.40;99.90;;;;;;5020087;28;20658;-75
2023/06/09 06:42:03;;;;;;;5.30;3.03;;;16.60;99.90;;;;;;5023115;28;20179;-75
2023/06/09 06:44:29;;;;;;;5.77;3.03;;;16.70;99.90;;;;;;5022091;28;20187;-75
2023/06/09 06:46:55;;;;;;;5.37;3.00;;;16.80;99.90;;;;;;5022869;28;20433;-75
2023/06/09 06:49:20;;;;;;;6.57;2.70;;;17.10;99.90;;;;;;5017722;28;20678;-75
2023/06/09 06:51:46;;;;;;;5.27;2.67;;;17.20;99.90;;;;;;5026179;28;20224;-75
2023/06/09 06:54:12;;;;;;;4.70;2.63;;;17.30;99.90;;;;;;5017600;28;20545;-75
2023/06/09 06:56:37;;;;;;;5.00;3.00;;;17.60;99.90;;;;;;5021767;28;20251;-74
2023/06/09 06:59:03;;;;;;;9.97;3.37;;;17.70;99.90;;;;;;5019851;28;20175;-75
2023/06/09 07:01:30;;;;;;;8.40;2.93;;;17.90;99.90;;;;;;5016821;28;20186;-75
2023/06/09 07:03:56;;;;;;;5.90;2.93;;;18.20;99.90;;;;;;5014579;28;21340;-75
2023/06/09 07:06:22;;;;;;;4.23;2.43;;;18.40;99.90;;;;;;5017662;28;20410;-75
2023/06/09 07:08:48;;;;;;;5.77;2.93;;;18.50;99.90;;;;;;5018168;28;21567;-75
2023/06/09 07:11:14;;;;;;;3.00;2.17;;;18.80;99.90;;;;;;5019031;28;20262;-75
2023/06/09 07:13:40;;;;;;;3.90;2.40;;;19.00;99.90;;;;;;5021646;28;20520;-75
2023/06/09 07:16:06;;;;;;;3.10;2.00;;;19.20;99.00;;;;;;5018272;28;20656;-76
2023/06/09 07:18:31;;;;;;;5.07;2.60;;;19.40;98.20;;;;;;5015807;28;20182;-75
2023/06/09 07:20:57;;;;;;;4.80;2.90;;;19.70;99.60;;;;;;5021656;28;20226;-76
2023/06/09 07:23:22;;;;;;;4.43;2.50;;;20.00;99.10;;;;;;5017875;28;20767;-73
2023/06/09 07:25:48;;;;;;;4.07;2.43;;;20.30;95.60;;;;;;5012630;28;20912;-73
2023/06/09 07:28:13;;;;;;;3.60;2.20;;;20.40;94.60;;;;;;5012911;28;20175;-73
2023/06/09 07:30:42;;;;;;;4.07;2.00;;;20.60;94.50;;;;;;5014383;28;20182;-73
2023/06/09 07:33:08;;;;;;;2.83;2.07;;;20.80;94.10;;;;;;5012638;28;20700;-73
2023/06/09 07:35:34;;;;;;;6.00;3.20;;;21.30;95.40;;;;;;5012339;28;20969;-73
2023/06/09 07:38:01;;;;;;;5.20;2.40;;;21.60;94.60;;;;;;5012960;28;20436;-74
2023/06/09 07:40:27;;;;;;;3.50;2.90;;;22.60;92.00;;;;;;5011948;28;20468;-74
2023/06/09 07:42:52;;;;;;;4.47;2.50;;;23.60;90.60;;;;;;4995046;28;20425;-74
2023/06/09 07:45:18;;;;;;;9.53;3.30;;;24.20;90.50;;;;;;5014565;28;20182;-74
2023/06/09 07:47:44;;;;;;;5.20;3.25;;;25.10;87.90;;;;;;5023152;28;20583;-74
2023/06/09 07:50:11;;;;;;;3.40;2.05;;;26.00;83.60;;;;;;5018004;28;20179;-74
2023/06/09 07:52:37;;;;;;;4.93;2.90;;;25.60;83.90;;;;;;5013447;28;20188;-74
2023/06/09 07:55:06;;;;;;;8.52;2.22;;;26.30;82.90;;;;;;5020755;28;20187;-74
2023/06/09 07:57:32;;;;;;;4.63;2.53;;;26.80;77.00;;;;;;5012659;28;20213;-74
2023/06/09 07:59:58;;;;;;;5.82;3.60;;;27.20;75.10;;;;;;5001322;28;20568;-76
2023/06/09 08:02:24;;;;;;;3.55;2.00;;;27.70;72.50;;;;;;5011830;28;20182;-73
2023/06/09 08:04:49;;;;;;;4.82;2.42;;;27.20;73.20;;;;;;5011941;28;20182;-74
2023/06/09 08:07:15;;;;;;;4.30;2.58;;;27.10;74.90;;;;;;5012809;28;20532;-75
2023/06/09 08:09:41;;;;;;;4.95;2.47;;;27.60;70.50;;;;;;5024432;28;20265;-75
2023/06/09 08:12:07;;;;;;;9.25;3.00;;;27.40;70.00;;;;;;5020330;28;20210;-74
2023/06/09 08:14:32;;;;;;;16.15;3.05;;;26.60;73.80;;;;;;5013705;28;20191;-73
2023/06/09 08:16:58;;;;;;;3.55;2.45;;;26.90;71.80;;;;;;5012332;28;20388;-74
2023/06/09 08:19:24;;;;;;;3.45;1.98;;;27.30;69.70;;;;;;5016687;28;20186;-74
2023/06/09 08:21:50;;;;;;;4.38;2.55;;;26.60;71.50;;;;;;5010946;28;20265;-74
2023/06/09 08:24:16;;;;;;;4.57;2.30;;;26.50;74.10;;;;;;5013232;28;20187;-74
2023/06/09 08:26:43;;;;;;;4.32;2.35;;;26.60;71.60;;;;;;5011947;28;20263;-74
2023/06/09 08:29:10;;;;;;;3.97;2.80;;;26.70;72.20;;;;;;5011940;28;20186;-74
2023/06/09 08:31:37;;;;;;;7.30;3.08;;;26.70;71.10;;;;;;5014624;28;20738;-74
2023/06/09 08:34:03;;;;;;;3.95;2.40;;;27.30;70.20;;;;;;5011405;28;20171;-73
2023/06/09 08:36:29;;;;;;;3.60;2.33;;;27.20;70.60;;;;;;4995629;28;20201;-73
2023/06/09 08:38:55;;;;;;;3.83;2.03;;;26.70;69.20;;;;;;5022002;28;20190;-74
2023/06/09 08:41:24;;;;;;;5.32;2.25;;;26.80;70.40;;;;;;5021179;28;20654;-74
2023/06/09 08:43:50;;;;;;;3.40;1.90;;;27.50;69.80;;;;;;5015161;28;20186;-74
2023/06/09 08:46:19;;;;;;;4.63;2.30;;;27.40;69.30;;;;;;5019186;28;20178;-73
2023/06/09 08:48:56;;;;;;;4.50;2.70;;;27.30;69.00;;;;;;5018043;28;20194;-73
2023/06/09 08:51:22;;;;;;;4.63;2.33;;;27.50;68.70;;;;;;5010709;28;20786;-73
2023/06/09 08:53:52;;;;;;;6.40;3.08;;;27.30;70.80;;;;;;5016766;28;20316;-74
2023/06/09 08:56:21;;;;;;;4.82;2.15;;;27.60;68.80;;;;;;5019135;28;20678;-74
2023/06/09 08:58:48;;;;;;;2.80;1.77;;;27.50;70.90;;;;;;5019301;28;20208;-73
2023/06/09 09:01:14;;;;;;;5.13;2.40;;;27.40;68.80;;;;;;5020690;28;20312;-74
2023/06/09 09:03:40;;;;;;;3.20;1.92;;;27.10;67.60;;;;;;5016889;28;20216;-74
2023/06/09 09:06:06;;;;;;;4.68;3.03;;;27.20;68.10;;;;;;5015924;28;20674;-74
2023/06/09 09:08:32;;;;;;;4.60;2.22;;;27.60;67.00;;;;;;5021948;28;20252;-75
2023/06/09 09:10:57;;;;;;;3.88;2.47;;;27.70;66.20;;;;;;5011502;28;20534;-74
2023/06/09 09:13:30;;;;;;;6.47;2.60;;;27.30;65.30;;;;;;5019497;28;20803;-74
2023/06/09 09:15:59;;;;;;;2.67;1.83;;;26.80;67.00;;;;;;5021443;28;20628;-74
2023/06/09 09:18:43;;;;;;;5.00;2.30;;;26.90;67.20;;;;;;5018866;28;20598;-74
2023/06/09 09:21:09;;;;;;;3.38;1.88;;;27.50;65.30;;;;;;5023164;28;20237;-75
2023/06/09 09:23:35;;;;;;;2.33;1.40;;;27.30;65.50;;;;;;5019984;28;20210;-75
2023/06/09 09:26:04;;;;;;;3.67;1.95;;;27.60;65.50;;;;;;5017058;28;20221;-73
2023/06/09 09:28:40;;;;;;;3.80;1.88;;;27.70;64.80;;;;;;5016615;28;20194;-73
2023/06/09 09:31:09;;;;;;;2.38;1.55;;;27.60;65.10;;;;;;5022198;28;20233;-72
2023/06/09 09:33:38;;;;;;;5.28;2.50;;;27.30;65.90;;;;;;5020389;28;20269;-73
2023/06/09 09:36:09;;;;;;;4.30;2.08;;;27.00;66.00;;;;;;5022483;28;20206;-73
2023/06/09 09:38:35;;;;;;;4.13;1.83;;;27.40;64.90;;;;;;5023647;28;20633;-73
2023/06/09 09:41:01;;;;;;;4.10;2.25;;;27.10;64.70;;;;;;5013993;28;20179;-73
2023/06/09 09:43:30;;;;;;;5.55;2.25;;;26.90;64.60;;;;;;5015922;28;20197;-73
2023/06/09 09:46:01;;;;;;;3.28;2.00;;;26.80;66.90;;;;;;5018808;28;20174;-74
2023/06/09 09:48:27;;;;;;;4.15;2.47;;;26.80;66.90;;;;;;5018619;28;20917;-73
2023/06/09 09:50:55;;;;;;;2.47;1.75;;;27.00;67.50;;;;;;5015069;28;20256;-73
2023/06/09 09:53:25;;;;;;;3.28;1.90;;;27.20;67.40;;;;;;5019348;28;20621;-72
2023/06/09 09:55:56;;;;;;;3.47;2.20;;;27.20;63.60;;;;;;5016083;28;20290;-73
2023/06/09 09:58:40;;;;;;;3.10;1.95;;;27.20;63.60;;;;;;5020796;28;20641;-73
2023/06/09 10:01:07;;;;;;;5.05;2.42;;;27.20;66.40;;;;;;5011087;28;20179;-73
2023/06/09 10:03:44;;;;;;;4.68;2.15;;;27.20;66.30;;;;;;5013285;28;20200;-73
2023/06/09 10:06:13;;;;;;;4.57;2.20;;;27.40;66.30;;;;;;5010499;28;20186;-73
2023/06/09 10:08:41;;;;;;;3.53;2.22;;;27.30;64.00;;;;;;5008824;28;20214;-73
2023/06/09 10:11:07;;;;;;;4.28;2.13;;;27.30;65.90;;;;;;5015200;28;20522;-73
2023/06/09 10:13:33;;;;;;;4.55;1.92;;;27.90;62.20;;;;;;5027981;28;20244;-73
2023/06/09 10:16:00;;;;;;;3.92;1.90;;;27.60;63.50;;;;;;5030483;28;20685;-73
2023/06/09 10:18:26;;;;;;;3.45;2.50;;;27.70;62.50;;;;;;5027244;28;20174;-73
2023/06/09 10:20:53;;;;;;;5.35;3.05;;;27.60;64.80;;;;;;5029866;28;20254;-73
2023/06/09 10:23:20;;;;;;;3.35;2.17;;;27.40;65.20;;;;;;5030868;28;20190;-73
2023/06/09 10:25:47;;;;;;;3.03;1.77;;;27.00;64.00;;;;;;5021053;28;20189;-73
2023/06/09 10:28:16;;;;;;;3.22;2.25;;;26.70;66.10;;;;;;5015240;28;20631;-73
2023/06/09 10:30:42;;;;;;;5.00;2.67;;;26.80;66.30;;;;;;5016821;28;20607;-73
2023/06/09 10:33:11;;;;;;;3.53;1.80;;;27.00;66.70;;;;;;5016159;28;20715;-73
2023/06/09 10:35:38;;;;;;;5.55;1.95;;;26.20;63.80;;;;;;5015897;28;20206;-72
2023/06/09 10:38:25;;;;;;;5.77;2.47;;;26.00;68.40;;;;;;5026772;28;20237;-72
2023/06/09 10:41:11;;;;;;;3.83;2.10;;;26.40;69.20;;;;;;5022051;28;20186;-73
2023/06/09 10:43:55;;;;;;;3.83;2.03;;;26.50;67.90;;;;;;5023298;28;20182;-72
2023/06/09 10:46:41;;;;;;;3.13;1.77;;;26.30;66.60;;;;;;5027554;28;20281;-73
2023/06/09 10:49:07;;;;;;;4.10;1.90;;;26.60;67.10;;;;;;5030425;28;20182;-73
2023/06/09 10:51:39;;;;;;;4.07;2.03;;;26.30;65.90;;;;;;5012896;28;20233;-72
2023/06/09 10:54:12;;;;;;;2.70;1.63;;;26.10;66.20;;;;;;5023890;28;20262;-71
2023/06/09 10:56:41;;;;;;;4.03;2.00;;;26.40;67.20;;;;;;5016508;28;20317;-73
2023/06/09 10:59:25;;;;;;;4.50;2.40;;;26.60;65.30;;;;;;5020574;28;20213;-73
2023/06/09 11:02:02;;;;;;;2.87;1.87;;;26.80;65.40;;;;;;5025713;28;20197;-73
2023/06/09 11:04:46;;;;;;;6.33;2.30;;;26.90;62.50;;;;;;5021714;28;20181;-73
2023/06/09 11:07:13;;;;;;;5.40;2.00;;;26.70;62.50;;;;;;5023582;28;20221;-73
2023/06/09 11:09:39;;;;;;;2.53;1.60;;;26.80;64.20;;;;;;5023574;28;20193;-72
2023/06/09 11:12:06;;;;;;;4.70;2.60;;;26.70;64.60;;;;;;5023912;28;20244;-73
2023/06/09 11:14:56;;;;;;;4.50;2.00;;;26.70;64.60;;;;;;5019037;28;20199;-74
2023/06/09 11:17:25;;;;;;;3.40;1.83;;;26.20;65.30;;;;;;5016677;28;20206;-73
2023/06/09 11:19:52;;;;;;;4.70;1.93;;;26.00;64.30;;;;;;5026102;28;21029;-73
2023/06/09 11:22:17;;;;;;;5.30;2.00;;;25.70;65.00;;;;;;5029960;28;20427;-73
2023/06/09 11:24:50;;;;;;;4.23;1.77;;;25.60;66.00;;;;;;5028244;28;20417;-73
2023/06/09 11:27:21;;;;;;;3.47;2.17;;;25.70;66.40;;;;;;5015653;28;20194;-73
2023/06/09 11:30:06;;;;;;;2.90;2.20;;;26.00;65.80;;;;;;5025634;28;20443;-73
2023/06/09 11:32:47;;;;;;;5.47;2.10;;;26.10;65.20;;;;;;5012122;28;20182;-73
2023/06/09 11:35:28;;;;;;;3.50;1.90;;;26.40;65.00;;;;;;5027082;28;20412;-72
2023/06/09 11:38:08;;;;;;;4.50;2.30;;;26.10;63.70;;;;;;5027912;28;20459;-73
2023/06/09 11:40:50;;;;;;;3.30;1.40;;;26.30;65.70;;;;;;5013122;28;20186;-73
2023/06/09 11:43:16;;;;;;;4.40;1.90;;;;;;;;;;5013975;28;20411;-69
2023/06/09 11:45:43;;;;;;;3.03;1.77;;;26.80;63.20;;;;;;5014709;28;20258;-69
2023/06/09 11:48:08;;;;;;;3.73;1.90;;;27.00;60.00;;;;;;5017430;28;20201;-71
2023/06/09 11:50:39;;;;;;;3.37;1.73;;;27.00;60.80;;;;;;5018953;28;20659;-69
2023/06/09 11:53:07;;;;;;;5.83;2.10;;;26.60;62.80;;;;;;5019506;28;20226;-69
2023/06/09 11:55:32;;;;;;;4.27;2.00;;;26.60;62.50;;;;;;5016914;28;20183;-76
2023/06/09 11:57:59;;;;;;;3.33;2.33;;;26.70;62.20;;;;;;5020803;28;20557;-70
2023/06/09 12:00:27;;;;;;;6.30;1.93;;;26.80;63.10;;;;;;5021368;28;20178;-69
2023/06/09 12:02:57;;;;;;;4.00;2.20;;;27.00;61.90;;;;;;5016387;28;20225;-70
2023/06/09 12:05:26;;;;;;;3.30;2.00;;;27.30;63.80;;;;;;5020926;28;20183;-69
2023/06/09 12:07:53;;;;;;;6.90;1.70;;;27.30;61.80;;;;;;5023963;28;20216;-69
2023/06/09 12:10:21;;;;;;;3.17;1.90;;;26.60;62.30;;;;;;5020236;28;20224;-70
2023/06/09 12:12:49;;;;;;;3.37;1.97;;;26.60;61.90;;;;;;5015563;28;20194;-70
2023/06/09 12:15:16;;;;;;;3.40;1.87;;;26.50;61.10;;;;;;5004369;28;20630;-70
2023/06/09 12:17:43;;;;;;;4.67;2.00;;;26.70;61.10;;;;;;5012168;28;20304;-69
2023/06/09 12:20:24;;;;;;;3.33;1.80;;;27.00;60.70;;;;;;5022926;28;20177;-69
2023/06/09 12:22:50;;;;;;;4.77;1.70;;;27.20;60.60;;;;;;5016410;28;20540;-69
2023/06/09 12:25:25;;;;;;;3.00;1.70;;;27.10;59.70;;;;;;5010394;28;20179;-69
2023/06/09 12:27:52;;;;;;;4.00;1.47;;;26.60;59.40;;;;;;5022513;28;20828;-70
2023/06/09 12:30:38;;;;;;;2.90;1.50;;;26.30;60.00;;;;;;5026471;28;20188;-70
2023/06/09 12:33:12;;;;;;;2.77;1.90;;;26.30;60.20;;;;;;5024837;28;20320;-69
2023/06/09 12:35:37;;;;;;;2.13;1.10;;;26.30;59.00;;;;;;5030180;28;20183;-69
2023/06/09 12:38:22;;;;;;;2.27;1.57;;;26.40;59.60;;;;;;5031307;28;20218;-71
2023/06/09 12:40:55;;;;;;;3.13;1.63;;;26.50;59.50;;;;;;5028030;28;20208;-70
2023/06/09 12:43:25;;;;;;;3.13;1.83;;;26.70;59.20;;;;;;5033085;28;20182;-70
2023/06/09 12:45:58;;;;;;;4.53;1.47;;;27.10;58.30;;;;;;5038098;28;20177;-70
2023/06/09 12:48:24;;;;;;;2.57;1.40;;;27.20;58.70;;;;;;5030470;28;20188;-69
2023/06/09 12:50:50;;;;;;;2.17;1.30;;;27.30;59.00;;;;;;5045442;28;20881;-69